M I D A S
Marine Information and Data Acquisition System
Tripno 1913 of the Zeeleeuw from 2010-07-02 05:35:35 to 2010-07-02 16:30:11
Back to CruiseResearch ActivitiesStationsMapUnderway DataData graphs

EquipmentUnitsComment
TimeDGPSUTC
LatitudeDGPSDM.mWGS84
LongitudeDGPSDM.mWGS84
HeadingGyrodeg 
SOGDGPSknotsSpeed over ground
COGDGPSdegCourse over ground
DepthEcho soundermeters200 kHz
Missing or incorrect values are displayed as -999
Navigation data collected by the RV Zeeleeuw from 2010-07-02 05:37:34 to 2010-07-02 16:40:22
                                                                                    Next 1000 lines
Time Latitude Longitude Heading SOG COG Depth
2010-07-02 05:37:45 51°13.662 2°55.958 112.9 0.9 287 8
2010-07-02 05:37:50 51°13.662 2°55.955 112.4 1.2 291 8
2010-07-02 05:37:54 51°13.663 2°55.953 112.3 1.5 292 8.1
2010-07-02 05:38:00 51°13.664 2°55.949 112.3 1.7 292 8.2
2010-07-02 05:38:06 51°13.666 2°55.944 112.3 1.9 292 -999
2010-07-02 05:38:11 51°13.667 2°55.94 112.3 2.1 294 -999
2010-07-02 05:38:17 51°13.668 2°55.934 112.2 2.3 293 -999
2010-07-02 05:38:22 51°13.67 2°55.929 111.8 2.5 293 -999
2010-07-02 05:38:29 51°13.672 2°55.921 111.2 2.6 292 -999
2010-07-02 05:38:34 51°13.673 2°55.916 110.5 2.8 293 -999
2010-07-02 05:38:39 51°13.675 2°55.91 109.7 2.9 291 -999
2010-07-02 05:38:44 51°13.676 2°55.903 108.6 3 290 -999
2010-07-02 05:38:49 51°13.677 2°55.897 107.5 3.2 289 -999
2010-07-02 05:38:53 51°13.679 2°55.891 106.6 3.3 289 -999
2010-07-02 05:38:58 51°13.68 2°55.884 105.7 3.4 287 -999
2010-07-02 05:39:03 51°13.681 2°55.877 104.9 3.5 286 -999
2010-07-02 05:39:09 51°13.683 2°55.868 104.1 3.6 286 -999
2010-07-02 05:39:13 51°13.684 2°55.861 103.4 3.6 286 -999
2010-07-02 05:39:18 51°13.686 2°55.853 102.6 3.7 286 -999
2010-07-02 05:39:23 51°13.687 2°55.845 101.7 3.7 286 -999
2010-07-02 05:39:28 51°13.688 2°55.837 100.9 3.7 284 -999
2010-07-02 05:39:33 51°13.689 2°55.83 99.9 3.7 284 -999
2010-07-02 05:39:39 51°13.691 2°55.82 98.9 3.7 283 -999
2010-07-02 05:39:44 51°13.692 2°55.812 98 3.7 282 -999
2010-07-02 05:39:49 51°13.692 2°55.804 96.7 3.8 281 -999
2010-07-02 05:39:54 51°13.693 2°55.795 95.9 3.8 280 -999
2010-07-02 05:39:59 51°13.694 2°55.787 94.2 3.8 279 -999
2010-07-02 05:40:04 51°13.695 2°55.779 92.7 3.8 278 -999
2010-07-02 05:40:09 51°13.695 2°55.771 90.9 3.7 276 -999
2010-07-02 05:40:14 51°13.696 2°55.763 89.1 3.5 275 -999
2010-07-02 05:40:19 51°13.696 2°55.756 87.2 3.3 274 -999
2010-07-02 05:40:24 51°13.696 2°55.749 85.6 2.9 271 -999
2010-07-02 05:40:29 51°13.696 2°55.744 83.2 2.6 271 -999
2010-07-02 05:40:34 51°13.696 2°55.739 80.5 2.3 271 -999
2010-07-02 05:40:39 51°13.696 2°55.734 78.2 2 271 15.1
2010-07-02 05:40:43 51°13.696 2°55.731 76.6 1.7 273 14.9
2010-07-02 05:40:48 51°13.696 2°55.728 74.9 1.3 277 14.9
2010-07-02 05:40:53 51°13.696 2°55.727 73.6 0.3 308 14.7
2010-07-02 05:40:58 51°13.698 2°55.728 70.3 0.8 16 14.8
2010-07-02 05:41:03 51°13.699 2°55.729 63.9 1 30 15
2010-07-02 05:41:07 51°13.7 2°55.73 56.3 1.2 28 14.9
2010-07-02 05:41:12 51°13.702 2°55.731 49.2 1.6 28 14.5
2010-07-02 05:41:17 51°13.704 2°55.733 42.6 1.9 22 14.4
2010-07-02 05:41:22 51°13.707 2°55.734 35.8 2.1 17 14.6
2010-07-02 05:41:28 51°13.711 2°55.736 29.1 2.4 14 14.7
2010-07-02 05:41:33 51°13.714 2°55.737 22.5 2.6 7 14.9
2010-07-02 05:41:38 51°13.718 2°55.737 15.5 2.8 2 15
2010-07-02 05:41:43 51°13.722 2°55.736 8.8 3.1 356 14.7
2010-07-02 05:41:48 51°13.727 2°55.735 2 3.3 350 14.4
2010-07-02 05:41:52 51°13.731 2°55.733 355.4 3.4 345 14.3
2010-07-02 05:41:57 51°13.736 2°55.73 348.9 3.7 340 14.2
2010-07-02 05:42:02 51°13.741 2°55.726 342.4 4 334 13.9
2010-07-02 05:42:07 51°13.746 2°55.722 336.9 4.3 333 13.2
2010-07-02 05:42:12 51°13.752 2°55.717 333.4 4.5 330 12.9
2010-07-02 05:42:16 51°13.756 2°55.713 330.7 4.7 329 12.9
2010-07-02 05:42:21 51°13.762 2°55.707 329 4.9 327 12.3
2010-07-02 05:42:26 51°13.768 2°55.7 327.6 5.1 326 12.4
2010-07-02 05:42:31 51°13.774 2°55.694 326.3 5.4 325 12.7
2010-07-02 05:42:36 51°13.78 2°55.686 325.6 5.6 325 12.7
2010-07-02 05:42:40 51°13.785 2°55.681 325.2 5.8 325 13.3
2010-07-02 05:42:45 51°13.792 2°55.673 325.3 6 325 13.3
2010-07-02 05:42:50 51°13.8 2°55.665 325.7 6.2 326 13.4
2010-07-02 05:42:55 51°13.807 2°55.658 326.4 6.3 326 13.6
2010-07-02 05:43:00 51°13.814 2°55.65 327.3 6.4 327 13.6
2010-07-02 05:43:04 51°13.82 2°55.644 328.2 6.6 328 13.4
2010-07-02 05:43:10 51°13.83 2°55.635 329.3 6.7 329 13.5
2010-07-02 05:43:15 51°13.838 2°55.627 330.4 6.8 330 13.6
2010-07-02 05:43:20 51°13.847 2°55.62 331.5 6.8 331 13.4
2010-07-02 05:43:25 51°13.855 2°55.613 332.6 6.9 332 13.1
2010-07-02 05:43:30 51°13.864 2°55.606 333.6 7 334 12.7
2010-07-02 05:43:35 51°13.873 2°55.599 334.5 7 334 12.4
2010-07-02 05:43:40 51°13.882 2°55.593 335 7.1 335 12.3
2010-07-02 05:43:44 51°13.889 2°55.587 335.3 7.2 334 12.4
2010-07-02 05:43:50 51°13.9 2°55.579 335.4 7.2 335 12.7
2010-07-02 05:43:55 51°13.909 2°55.572 335.5 7.3 335 13
2010-07-02 05:44:00 51°13.918 2°55.565 335.6 7.4 335 13
2010-07-02 05:44:05 51°13.928 2°55.558 335.9 7.5 335 13
2010-07-02 05:44:10 51°13.937 2°55.551 335.9 7.6 334 12.9
2010-07-02 05:44:15 51°13.947 2°55.544 335.6 7.8 335 12.9
2010-07-02 05:44:20 51°13.957 2°55.537 335.7 7.8 335 12.9
2010-07-02 05:44:25 51°13.967 2°55.529 336.1 7.9 335 12.9
2010-07-02 05:44:30 51°13.977 2°55.522 336.5 7.9 336 12.9
2010-07-02 05:44:35 51°13.987 2°55.515 336.8 8 335 12.9
2010-07-02 05:44:40 51°13.997 2°55.507 336.4 8.1 335 12.8
2010-07-02 05:44:44 51°14.005 2°55.501 335.9 8.1 334 12.7
2010-07-02 05:44:50 51°14.018 2°55.492 335.6 8.1 335 12.5
2010-07-02 05:44:56 51°14.03 2°55.483 335.8 8.2 335 12.7
2010-07-02 05:45:00 51°14.038 2°55.477 335.9 8.2 334 12.7
2010-07-02 05:45:04 51°14.046 2°55.47 335.6 8.2 335 12.8
2010-07-02 05:45:10 51°14.059 2°55.461 335.7 8.3 335 12.5
2010-07-02 05:45:15 51°14.069 2°55.454 336.2 8.3 335 12.3
2010-07-02 05:45:20 51°14.079 2°55.446 336.2 8.3 335 12.1
2010-07-02 05:45:25 51°14.09 2°55.437 335.5 8.3 334 12
2010-07-02 05:45:30 51°14.1 2°55.429 334.8 8.3 334 12.7
2010-07-02 05:45:36 51°14.113 2°55.419 334.8 8.3 334 12.7
2010-07-02 05:45:40 51°14.121 2°55.413 334.9 8.4 333 12.7
2010-07-02 05:45:45 51°14.131 2°55.404 334.5 8.4 332 12.7
2010-07-02 05:45:50 51°14.142 2°55.396 334.1 8.4 333 12.7
2010-07-02 05:45:55 51°14.152 2°55.387 333.6 8.4 332 12.7
2010-07-02 05:46:00 51°14.163 2°55.378 333.2 8.5 332 12.7
2010-07-02 05:46:05 51°14.173 2°55.369 333 8.7 331 12.7
2010-07-02 05:46:10 51°14.184 2°55.359 332 8.8 330 12.7
2010-07-02 05:46:16 51°14.196 2°55.346 330.8 8.9 328 12.6
2010-07-02 05:46:20 51°14.205 2°55.337 329.4 9.1 327 12.7
2010-07-02 05:46:25 51°14.215 2°55.326 327.6 9.3 325 12.7
2010-07-02 05:46:30 51°14.226 2°55.314 326.5 9.4 325 12.7
2010-07-02 05:46:35 51°14.237 2°55.302 326.7 9.6 326 12.5
2010-07-02 05:46:40 51°14.248 2°55.29 327.1 9.7 326 12.4
2010-07-02 05:46:45 51°14.26 2°55.278 328.3 10 328 12.3
2010-07-02 05:46:50 51°14.272 2°55.267 329.6 10.1 328 12.3
2010-07-02 05:46:55 51°14.284 2°55.255 330.1 10.3 329 11.9
2010-07-02 05:47:00 51°14.297 2°55.243 330.2 10.4 329 12
2010-07-02 05:47:04 51°14.307 2°55.233 330.3 10.5 329 12.1
2010-07-02 05:47:10 51°14.322 2°55.219 330.9 10.6 330 11.9
2010-07-02 05:47:15 51°14.334 2°55.207 331.1 10.7 329 11.6
2010-07-02 05:47:20 51°14.347 2°55.196 331.4 10.7 330 12.4
2010-07-02 05:47:25 51°14.36 2°55.184 331.8 10.8 330 12.4
2010-07-02 05:47:30 51°14.373 2°55.172 331.5 10.8 330 12.1
2010-07-02 05:47:35 51°14.386 2°55.161 331.8 10.8 331 12.3
2010-07-02 05:47:40 51°14.4 2°55.149 331.9 10.8 331 12.1
2010-07-02 05:47:45 51°14.413 2°55.137 331.9 10.8 331 12.2
2010-07-02 05:47:50 51°14.426 2°55.126 332.3 10.8 331 12.2
2010-07-02 05:47:56 51°14.441 2°55.112 332.5 10.8 331 12.5
2010-07-02 05:48:00 51°14.452 2°55.103 332.5 10.8 331 12.5
2010-07-02 05:48:05 51°14.465 2°55.091 331.8 10.8 330 12.7
2010-07-02 05:48:10 51°14.478 2°55.079 331.8 10.8 331 12.9
2010-07-02 05:48:15 51°14.491 2°55.067 331.9 11 330 12.6
2010-07-02 05:48:20 51°14.504 2°55.055 331.7 11.1 330 12.8
2010-07-02 05:48:25 51°14.518 2°55.042 330.8 11.2 329 12.7
2010-07-02 05:48:30 51°14.532 2°55.029 330.7 11.4 331 12.9
2010-07-02 05:48:35 51°14.546 2°55.017 331.3 11.5 331 13.2
2010-07-02 05:48:40 51°14.56 2°55.005 331.1 11.6 330 13.2
2010-07-02 05:48:45 51°14.574 2°54.991 330.3 11.7 330 13.4
2010-07-02 05:48:50 51°14.588 2°54.978 330 11.8 330 13.4
2010-07-02 05:48:55 51°14.602 2°54.965 330 11.9 330 13.4
2010-07-02 05:49:00 51°14.617 2°54.952 330 12 331 13.3
2010-07-02 05:49:05 51°14.631 2°54.939 329.2 12.1 330 13.2
2010-07-02 05:49:10 51°14.646 2°54.927 329.4 12.1 333 13.2
2010-07-02 05:49:15 51°14.661 2°54.914 329.8 12.2 332 13.2
2010-07-02 05:49:20 51°14.676 2°54.901 328.9 12.2 331 13.2
2010-07-02 05:49:25 51°14.691 2°54.887 328.2 12.4 330 13.2
2010-07-02 05:49:30 51°14.706 2°54.873 327.3 12.6 330 13.2
2010-07-02 05:49:35 51°14.721 2°54.858 326.3 12.9 329 13.2
2010-07-02 05:49:40 51°14.737 2°54.843 325.4 13 328 13.2
2010-07-02 05:49:45 51°14.752 2°54.828 324.9 13.2 328 13.1
2010-07-02 05:49:50 51°14.768 2°54.813 324.9 13.4 329 13.1
2010-07-02 05:49:55 51°14.784 2°54.797 324.9 13.5 328 12.8
2010-07-02 05:50:00 51°14.8 2°54.781 324.1 13.6 328 12.7
2010-07-02 05:50:05 51°14.816 2°54.764 323.8 13.6 327 12.4
2010-07-02 05:50:10 51°14.832 2°54.747 323.1 13.6 326 12.1
2010-07-02 05:50:15 51°14.848 2°54.73 322.5 13.7 326 12.3
2010-07-02 05:50:20 51°14.863 2°54.713 322.5 13.7 325 11.8
2010-07-02 05:50:25 51°14.879 2°54.696 322.1 13.7 326 11.9
2010-07-02 05:50:30 51°14.895 2°54.679 322.1 13.7 326 11.8
2010-07-02 05:50:35 51°14.91 2°54.662 322.3 13.7 327 11.4
2010-07-02 05:50:40 51°14.926 2°54.645 322.6 13.7 326 11.2
2010-07-02 05:50:45 51°14.943 2°54.629 322.6 13.7 327 11.4
2010-07-02 05:50:50 51°14.958 2°54.612 322.7 13.7 326 11.5
2010-07-02 05:50:56 51°14.977 2°54.591 322.1 13.7 325 11.3
2010-07-02 05:51:00 51°14.989 2°54.577 321.3 13.7 324 11.1
2010-07-02 05:51:05 51°15.005 2°54.559 320.9 13.7 324 11
2010-07-02 05:51:10 51°15.02 2°54.541 320.7 13.7 324 10.9
2010-07-02 05:51:15 51°15.036 2°54.524 320.5 13.8 324 11
2010-07-02 05:51:20 51°15.051 2°54.506 320.6 13.8 325 11
2010-07-02 05:51:25 51°15.067 2°54.488 320.8 13.8 325 10.7
2010-07-02 05:51:30 51°15.083 2°54.471 320.9 13.8 325 10.8
2010-07-02 05:51:35 51°15.099 2°54.453 320.9 13.8 325 11
2010-07-02 05:51:40 51°15.114 2°54.435 320.5 13.8 324 10.8
2010-07-02 05:51:45 51°15.129 2°54.417 320.2 13.8 324 10.6
2010-07-02 05:51:50 51°15.144 2°54.398 319.7 13.8 322 10.8
2010-07-02 05:51:56 51°15.163 2°54.376 319.8 13.8 323 10.7
2010-07-02 05:52:00 51°15.175 2°54.361 319.9 13.8 322 10.9
2010-07-02 05:52:05 51°15.19 2°54.342 319.7 13.8 322 11
2010-07-02 05:52:10 51°15.205 2°54.324 320.1 13.8 322 11
2010-07-02 05:52:15 51°15.22 2°54.305 320.1 13.8 323 11
2010-07-02 05:52:20 51°15.236 2°54.287 320.7 13.8 323 11.2
2010-07-02 05:52:25 51°15.251 2°54.268 320.9 13.8 323 11.2
2010-07-02 05:52:30 51°15.267 2°54.25 321 13.8 324 11.3
2010-07-02 05:52:35 51°15.282 2°54.232 321.3 13.8 323 11.3
2010-07-02 05:52:40 51°15.297 2°54.214 321.3 13.8 323 11.4
2010-07-02 05:52:45 51°15.312 2°54.195 321.3 13.8 323 11.2
2010-07-02 05:52:50 51°15.328 2°54.177 321.3 13.8 323 11.2
2010-07-02 05:52:55 51°15.343 2°54.159 321.2 13.8 323 11.3
2010-07-02 05:53:00 51°15.358 2°54.14 321.2 13.8 323 11.5
2010-07-02 05:53:05 51°15.374 2°54.122 321.6 13.8 324 11.4
2010-07-02 05:53:10 51°15.389 2°54.104 321.5 13.8 324 11.5
2010-07-02 05:53:16 51°15.408 2°54.083 321.5 13.8 324 11.6
2010-07-02 05:53:20 51°15.42 2°54.068 321.2 13.8 323 11.7
2010-07-02 05:53:25 51°15.435 2°54.05 320.9 13.8 323 11.9
2010-07-02 05:53:30 51°15.45 2°54.031 320.8 13.8 323 11.8
2010-07-02 05:53:35 51°15.465 2°54.012 320.9 13.8 322 11.9
2010-07-02 05:53:40 51°15.481 2°53.994 320.9 13.8 323 11.9
2010-07-02 05:53:45 51°15.496 2°53.976 321 13.8 323 12
2010-07-02 05:53:50 51°15.511 2°53.957 321 13.8 322 11.9
2010-07-02 05:53:56 51°15.529 2°53.935 320.7 13.8 322 12.1
2010-07-02 05:54:00 51°15.541 2°53.92 320.7 13.8 323 12.1
2010-07-02 05:54:04 51°15.553 2°53.905 320.9 13.8 323 12.2
2010-07-02 05:54:10 51°15.572 2°53.883 321.3 13.8 324 12.1
2010-07-02 05:54:16 51°15.59 2°53.862 321.3 13.8 324 12.3
2010-07-02 05:54:20 51°15.603 2°53.847 321.6 13.8 324 12.3
2010-07-02 05:54:24 51°15.615 2°53.833 321.4 13.8 323 12.5
2010-07-02 05:54:30 51°15.633 2°53.811 320.7 13.8 322 12.5
2010-07-02 05:54:35 51°15.648 2°53.792 320.1 13.8 322 12.5
2010-07-02 05:54:40 51°15.663 2°53.773 319.4 13.7 322 12.5
2010-07-02 05:54:45 51°15.678 2°53.754 319.3 13.8 322 12.6
2010-07-02 05:54:50 51°15.693 2°53.736 319.3 13.7 322 12.6
2010-07-02 05:54:56 51°15.711 2°53.713 319.3 13.7 322 12.7
2010-07-02 05:55:00 51°15.723 2°53.698 319 13.7 321 12.8
2010-07-02 05:55:04 51°15.735 2°53.683 318.8 13.7 322 12.8
2010-07-02 05:55:10 51°15.752 2°53.66 318.7 13.7 321 12.7
2010-07-02 05:55:16 51°15.77 2°53.638 318.7 13.7 321 12.9
2010-07-02 05:55:20 51°15.782 2°53.623 318.7 13.7 322 12.9
2010-07-02 05:55:24 51°15.794 2°53.608 319.2 13.7 323 12.9
2010-07-02 05:55:30 51°15.812 2°53.585 319.5 13.7 321 12.9
2010-07-02 05:55:36 51°15.83 2°53.562 319 13.7 321 13.1
2010-07-02 05:55:40 51°15.841 2°53.547 318.5 13.7 320 13.1
2010-07-02 05:55:45 51°15.857 2°53.528 318.7 13.7 322 12.9
2010-07-02 05:55:50 51°15.872 2°53.51 319.4 13.7 323 13
2010-07-02 05:55:55 51°15.887 2°53.493 320.6 13.8 325 13.1
2010-07-02 05:56:00 51°15.904 2°53.476 322.4 13.8 327 13
2010-07-02 05:56:05 51°15.92 2°53.46 324.5 13.8 329 13
2010-07-02 05:56:10 51°15.937 2°53.445 325.4 13.9 330 13
2010-07-02 05:56:15 51°15.954 2°53.43 326.7 13.9 331 13
2010-07-02 05:56:20 51°15.97 2°53.415 327.4 13.9 330 13
2010-07-02 05:56:25 51°15.987 2°53.4 328.4 13.9 332 13
2010-07-02 05:56:30 51°16.005 2°53.386 328.8 14 333 13.2
2010-07-02 05:56:35 51°16.022 2°53.372 329.4 14 333 13.1
2010-07-02 05:56:40 51°16.039 2°53.358 330 14 334 13.2
2010-07-02 05:56:45 51°16.057 2°53.345 330.2 14 334 13.2
2010-07-02 05:56:50 51°16.074 2°53.332 330.6 14 335 13.6
2010-07-02 05:56:55 51°16.092 2°53.319 330.9 14.1 335 13.2
2010-07-02 05:57:00 51°16.11 2°53.306 332.1 14.1 337 13.2
2010-07-02 05:57:04 51°16.125 2°53.296 332.7 14.1 336 13.2
2010-07-02 05:57:10 51°16.146 2°53.282 333.8 14.1 339 13.2
2010-07-02 05:57:15 51°16.164 2°53.27 334.1 14.1 337 13.2
2010-07-02 05:57:20 51°16.183 2°53.259 334.7 14.1 340 13.3
2010-07-02 05:57:25 51°16.201 2°53.247 335.2 14.1 339 13.2
2010-07-02 05:57:30 51°16.22 2°53.237 335.5 14.1 340 13.3
2010-07-02 05:57:36 51°16.241 2°53.223 335.7 14.1 338 13.2
2010-07-02 05:57:40 51°16.256 2°53.214 335.4 14.1 339 13.4
2010-07-02 05:57:45 51°16.274 2°53.202 335.3 14.1 338 13.4
2010-07-02 05:57:50 51°16.292 2°53.191 335.3 14.1 338 13.4
2010-07-02 05:57:55 51°16.31 2°53.179 335.2 14 338 13.4
2010-07-02 05:58:00 51°16.328 2°53.168 335.1 14 338 13.4
2010-07-02 05:58:05 51°16.346 2°53.156 335.2 14 338 13.3
2010-07-02 05:58:10 51°16.364 2°53.145 335.4 14 338 13.4
2010-07-02 05:58:15 51°16.382 2°53.133 335.4 14 338 13.4
2010-07-02 05:58:20 51°16.4 2°53.121 335.4 14 337 13.4
2010-07-02 05:58:25 51°16.418 2°53.109 335.5 14 338 13.2
2010-07-02 05:58:30 51°16.436 2°53.097 335.4 14 337 13.3
2010-07-02 05:58:35 51°16.454 2°53.086 335.4 14 338 13.4
2010-07-02 05:58:40 51°16.473 2°53.074 335.6 14 338 13.3
2010-07-02 05:58:45 51°16.491 2°53.062 335.4 14 338 13.3
2010-07-02 05:58:50 51°16.509 2°53.051 335.4 14 338 13.2
2010-07-02 05:58:56 51°16.53 2°53.036 335.1 14 337 13.2
2010-07-02 05:59:00 51°16.545 2°53.027 334.7 14 337 13.1
2010-07-02 05:59:05 51°16.563 2°53.015 334.7 14 337 13
2010-07-02 05:59:10 51°16.581 2°53.003 334.7 14.1 338 13
2010-07-02 05:59:15 51°16.598 2°52.991 334.7 14 337 12.9
2010-07-02 05:59:20 51°16.617 2°52.98 336.1 14.1 340 13
2010-07-02 05:59:25 51°16.635 2°52.969 336.8 14.1 338 12.7
2010-07-02 05:59:30 51°16.654 2°52.959 337.9 14.1 341 12.7
2010-07-02 05:59:35 51°16.672 2°52.948 338.3 14.1 340 12.7
2010-07-02 05:59:40 51°16.691 2°52.939 339.2 14.2 342 12.5
2010-07-02 05:59:45 51°16.709 2°52.929 339.5 14.1 342 12.4
2010-07-02 05:59:50 51°16.728 2°52.92 339.9 14.2 342 12.2
2010-07-02 05:59:56 51°16.751 2°52.908 340.3 14.1 343 12.1
2010-07-02 06:00:00 51°16.766 2°52.901 340.5 14.2 343 11.7
2010-07-02 06:00:05 51°16.784 2°52.891 340.5 14.1 342 11.4
2010-07-02 06:00:10 51°16.803 2°52.882 340.3 14.1 343 11.4
2010-07-02 06:00:15 51°16.822 2°52.873 340.1 14.1 342 11
2010-07-02 06:00:20 51°16.84 2°52.864 340 14.1 343 10.8
2010-07-02 06:00:25 51°16.859 2°52.855 340.1 14.1 343 10.7
2010-07-02 06:00:30 51°16.878 2°52.846 340.3 14.1 343 10.6
2010-07-02 06:00:35 51°16.896 2°52.837 340.5 14.2 343 10.7
2010-07-02 06:00:40 51°16.915 2°52.827 340.4 14.2 343 10.9
2010-07-02 06:00:45 51°16.934 2°52.818 340.4 14.2 343 10.8
2010-07-02 06:00:50 51°16.953 2°52.809 340.2 14.2 343 10.8
2010-07-02 06:00:56 51°16.976 2°52.797 340.1 14.2 343 11.1
2010-07-02 06:01:00 51°16.991 2°52.79 339.9 14.3 343 11.1
2010-07-02 06:01:04 51°17.006 2°52.782 339.9 14.3 343 11.2
2010-07-02 06:01:10 51°17.029 2°52.773 341.3 14.4 346 11.2
2010-07-02 06:01:16 51°17.052 2°52.763 341.7 14.3 344 11.5
2010-07-02 06:01:20 51°17.068 2°52.757 342.8 14.4 347 11.6
2010-07-02 06:01:24 51°17.083 2°52.75 343.4 14.4 345 11.5
2010-07-02 06:01:30 51°17.106 2°52.742 344.1 14.4 347 11.4
2010-07-02 06:01:35 51°17.126 2°52.734 344.5 14.3 346 11.4
2010-07-02 06:01:40 51°17.145 2°52.727 344.9 14.3 347 11.4
2010-07-02 06:01:45 51°17.164 2°52.719 345.1 14.3 346 11.3
2010-07-02 06:01:50 51°17.184 2°52.712 345.3 14.3 347 11.1
2010-07-02 06:01:56 51°17.207 2°52.703 345.6 14.3 347 11.4
2010-07-02 06:02:00 51°17.222 2°52.698 345.6 14.3 347 11.3
2010-07-02 06:02:05 51°17.241 2°52.69 345.1 14.2 346 11.3
2010-07-02 06:02:10 51°17.261 2°52.683 345.2 14.3 347 11.2
2010-07-02 06:02:15 51°17.28 2°52.676 345.3 14.2 347 11.4
2010-07-02 06:02:20 51°17.299 2°52.668 345.2 14.2 347 11.3
2010-07-02 06:02:25 51°17.319 2°52.663 347 14.2 351 11.4
2010-07-02 06:02:30 51°17.338 2°52.657 348.5 14.3 349 11.5
2010-07-02 06:02:35 51°17.358 2°52.654 349.9 14.2 353 11.5
2010-07-02 06:02:40 51°17.378 2°52.649 351.4 14.3 352 11.4
2010-07-02 06:02:45 51°17.397 2°52.647 352.4 14.3 355 11.5
2010-07-02 06:02:50 51°17.417 2°52.643 353.4 14.3 354 11.6
2010-07-02 06:02:56 51°17.441 2°52.642 354.9 14.3 358 11.6
2010-07-02 06:03:00 51°17.457 2°52.64 356.2 14.4 357 11.6
2010-07-02 06:03:05 51°17.477 2°52.64 357.6 14.3 -999 11.9
2010-07-02 06:03:10 51°17.497 2°52.639 358.5 14.3 359 11.6
2010-07-02 06:03:16 51°17.52 2°52.64 359.3 14.3 1 11.8
2010-07-02 06:03:20 51°17.536 2°52.64 -999 14.4 -999 11.7
2010-07-02 06:03:24 51°17.552 2°52.64 0.1 14.3 1 11.8
2010-07-02 06:03:30 51°17.576 2°52.641 0.8 14.3 1 11.9
2010-07-02 06:03:36 51°17.6 2°52.642 0.9 14.3 2 11.7
2010-07-02 06:03:40 51°17.616 2°52.643 1.3 14.4 1 11.8
2010-07-02 06:03:45 51°17.636 2°52.644 1.2 14.3 1 11.7
2010-07-02 06:03:50 51°17.656 2°52.644 1.2 14.3 1 12
2010-07-02 06:03:56 51°17.679 2°52.645 1.2 14.3 1 11.9
2010-07-02 06:04:00 51°17.695 2°52.646 1.2 14.3 1 11.7
2010-07-02 06:04:05 51°17.715 2°52.647 1.3 14.3 2 11.9
2010-07-02 06:04:10 51°17.735 2°52.647 1.4 14.3 1 11.5
2010-07-02 06:04:16 51°17.759 2°52.648 1.4 14.3 1 11.7
2010-07-02 06:04:20 51°17.775 2°52.649 1.4 14.3 1 11.7
2010-07-02 06:04:24 51°17.791 2°52.649 1.2 14.3 1 11.7
2010-07-02 06:04:30 51°17.815 2°52.65 0.8 14.4 -999 11.7
2010-07-02 06:04:35 51°17.835 2°52.65 0.7 14.4 1 11.7
2010-07-02 06:04:40 51°17.855 2°52.65 0.6 14.3 1 11.8
2010-07-02 06:04:45 51°17.874 2°52.651 0.6 14.4 1 11.8
2010-07-02 06:04:50 51°17.894 2°52.651 0.6 14.3 1 11.7
2010-07-02 06:04:55 51°17.914 2°52.652 0.7 14.3 -999 11.8
2010-07-02 06:05:00 51°17.934 2°52.652 0.6 14.4 1 12.1
2010-07-02 06:05:05 51°17.954 2°52.652 0.6 14.3 1 12.1
2010-07-02 06:05:10 51°17.974 2°52.653 0.7 14.3 -999 11.9
2010-07-02 06:05:16 51°17.998 2°52.653 0.5 14.3 -999 12.1
2010-07-02 06:05:20 51°18.013 2°52.653 0.3 14.4 -999 12.1
2010-07-02 06:05:25 51°18.033 2°52.653 0.2 14.4 1 12
2010-07-02 06:05:30 51°18.053 2°52.653 0.5 14.4 -999 12.1
2010-07-02 06:05:35 51°18.073 2°52.653 0.1 14.4 -999 12.1
2010-07-02 06:05:40 51°18.093 2°52.654 0.3 14.4 1 12.1
2010-07-02 06:05:45 51°18.113 2°52.655 0.3 14.3 1 12.1
2010-07-02 06:05:50 51°18.133 2°52.655 0.6 14.4 1 12.2
2010-07-02 06:05:55 51°18.153 2°52.659 2.9 14.4 6 12.3
2010-07-02 06:06:00 51°18.173 2°52.66 4.3 14.4 4 12.3
2010-07-02 06:06:04 51°18.189 2°52.665 5.9 14.4 8 12.3
2010-07-02 06:06:10 51°18.212 2°52.668 6.4 14.3 6 12.5
2010-07-02 06:06:15 51°18.232 2°52.674 7.9 14.4 10 12.4
2010-07-02 06:06:20 51°18.252 2°52.678 8.3 14.3 7 12.5
2010-07-02 06:06:25 51°18.271 2°52.684 9.4 14.4 11 12.3
2010-07-02 06:06:30 51°18.291 2°52.688 9.8 14.4 8 12.5
2010-07-02 06:06:35 51°18.31 2°52.695 10.4 14.3 11 12.6
2010-07-02 06:06:40 51°18.33 2°52.7 10.3 14.4 9 12.5
2010-07-02 06:06:45 51°18.35 2°52.706 10.4 14.4 11 12.5
2010-07-02 06:06:50 51°18.369 2°52.712 10.9 14.4 10 12.6
2010-07-02 06:06:55 51°18.389 2°52.717 10.9 14.4 11 12.6
2010-07-02 06:07:00 51°18.409 2°52.723 10.8 14.4 10 12.6
2010-07-02 06:07:05 51°18.428 2°52.729 10.9 14.4 11 12.7
2010-07-02 06:07:10 51°18.448 2°52.735 10.9 14.4 11 12.7
2010-07-02 06:07:15 51°18.468 2°52.741 11 14.4 10 12.8
2010-07-02 06:07:20 51°18.487 2°52.746 10.7 14.4 10 12.8
2010-07-02 06:07:25 51°18.507 2°52.752 10.6 14.4 10 12.9
2010-07-02 06:07:30 51°18.527 2°52.758 10.6 14.4 10 12.9
2010-07-02 06:07:35 51°18.546 2°52.764 10.8 14.4 11 12.9
2010-07-02 06:07:40 51°18.566 2°52.769 10.8 14.5 10 12.9
2010-07-02 06:07:45 51°18.586 2°52.775 10.5 14.4 10 12.8
2010-07-02 06:07:50 51°18.605 2°52.78 10.4 14.4 10 12.9
2010-07-02 06:07:56 51°18.629 2°52.786 10.1 14.4 10 13
2010-07-02 06:08:00 51°18.645 2°52.79 10 14.4 10 12.9
2010-07-02 06:08:04 51°18.66 2°52.794 9.7 14.4 10 12.9
2010-07-02 06:08:10 51°18.684 2°52.801 10.2 14.4 10 13
2010-07-02 06:08:16 51°18.708 2°52.807 10.2 14.4 10 13.1
2010-07-02 06:08:20 51°18.724 2°52.811 9.9 14.4 9 13
2010-07-02 06:08:24 51°18.74 2°52.816 9.9 14.5 10 13.2
2010-07-02 06:08:30 51°18.763 2°52.822 9.8 14.4 9 13.1
2010-07-02 06:08:35 51°18.783 2°52.828 10.1 14.4 10 13.2
2010-07-02 06:08:40 51°18.803 2°52.833 10.1 14.4 9 13.2
2010-07-02 06:08:45 51°18.822 2°52.838 10 14.4 10 13.3
2010-07-02 06:08:50 51°18.842 2°52.843 9.7 14.4 9 13.3
2010-07-02 06:08:55 51°18.862 2°52.848 9.6 14.4 10 13.3
2010-07-02 06:09:00 51°18.882 2°52.853 9.7 14.4 9 13.4
2010-07-02 06:09:05 51°18.901 2°52.858 9.6 14.4 9 13.5
2010-07-02 06:09:10 51°18.921 2°52.863 9.5 14.4 9 13.4
2010-07-02 06:09:15 51°18.941 2°52.869 9.4 14.4 10 13.4
2010-07-02 06:09:20 51°18.961 2°52.873 9.7 14.4 9 13.6
2010-07-02 06:09:24 51°18.976 2°52.878 9.5 14.4 10 13.6
2010-07-02 06:09:30 51°19 2°52.884 9.8 14.4 9 13.7
2010-07-02 06:09:35 51°19.02 2°52.889 10 14.4 10 13.7
2010-07-02 06:09:40 51°19.039 2°52.894 10.1 14.4 9 13.8
2010-07-02 06:09:45 51°19.059 2°52.899 9.7 14.4 9 13.8
2010-07-02 06:09:50 51°19.079 2°52.905 9.7 14.3 10 13.9
2010-07-02 06:09:56 51°19.102 2°52.911 9.9 14.3 9 14
2010-07-02 06:10:00 51°19.118 2°52.915 9.9 14.3 10 14
2010-07-02 06:10:05 51°19.137 2°52.92 10.2 14.3 9 14.2
2010-07-02 06:10:10 51°19.157 2°52.925 9.6 14.3 9 14.1
2010-07-02 06:10:16 51°19.181 2°52.931 9.7 14.3 10 14.2
2010-07-02 06:10:20 51°19.196 2°52.935 9.8 14.3 9 14.4
2010-07-02 06:10:24 51°19.212 2°52.939 9.9 14.3 9 14.4
2010-07-02 06:10:30 51°19.236 2°52.945 9.8 14.3 9 14.5
2010-07-02 06:10:36 51°19.259 2°52.951 9.5 14.3 8 14.5
2010-07-02 06:10:40 51°19.275 2°52.955 9.4 14.3 9 14.7
2010-07-02 06:10:45 51°19.294 2°52.96 9.7 14.3 9 14.6
2010-07-02 06:10:50 51°19.314 2°52.965 9.6 14.3 9 14.7
2010-07-02 06:10:56 51°19.338 2°52.97 9.5 14.3 9 14.9
2010-07-02 06:11:00 51°19.353 2°52.974 9.2 14.3 8 15
2010-07-02 06:11:05 51°19.373 2°52.979 9.4 14.3 9 15.1
2010-07-02 06:11:10 51°19.393 2°52.984 9.5 14.3 8 15.2
2010-07-02 06:11:15 51°19.412 2°52.989 9.3 14.3 10 15.2
2010-07-02 06:11:20 51°19.432 2°52.994 9.6 14.3 9 15.7
2010-07-02 06:11:24 51°19.448 2°52.997 9.1 14.3 9 15.4
2010-07-02 06:11:30 51°19.471 2°53.003 9.3 14.3 9 15.3
2010-07-02 06:11:36 51°19.495 2°53.009 9.3 14.3 8 15.4
2010-07-02 06:11:40 51°19.51 2°53.013 9.2 14.3 9 15.5
2010-07-02 06:11:45 51°19.53 2°53.018 9.2 14.3 9 15.7
2010-07-02 06:11:50 51°19.55 2°53.022 9.3 14.3 9 15.7
2010-07-02 06:11:55 51°19.569 2°53.027 9.5 14.3 9 15.8
2010-07-02 06:12:00 51°19.589 2°53.032 9.5 14.3 9 15.8
2010-07-02 06:12:05 51°19.609 2°53.037 9.6 14.4 9 15.9
2010-07-02 06:12:10 51°19.628 2°53.042 9.6 14.3 9 16
2010-07-02 06:12:15 51°19.648 2°53.047 9.6 14.3 8 16.1
2010-07-02 06:12:20 51°19.668 2°53.051 9.1 14.3 8 16
2010-07-02 06:12:25 51°19.687 2°53.056 9.1 14.3 8 16.2
2010-07-02 06:12:30 51°19.707 2°53.06 9 14.3 8 16.2
2010-07-02 06:12:35 51°19.727 2°53.066 9.4 14.3 9 16.4
2010-07-02 06:12:40 51°19.746 2°53.07 9.5 14.3 9 16.5
2010-07-02 06:12:45 51°19.766 2°53.076 9.6 14.3 10 16.4
2010-07-02 06:12:50 51°19.785 2°53.08 9.9 14.3 9 16.6
2010-07-02 06:12:55 51°19.805 2°53.085 9.6 14.4 9 16.5
2010-07-02 06:13:00 51°19.825 2°53.091 9.5 14.4 9 16.7
2010-07-02 06:13:05 51°19.844 2°53.096 9.6 14.3 10 16.7
2010-07-02 06:13:10 51°19.864 2°53.101 9.9 14.3 9 16.8
2010-07-02 06:13:15 51°19.884 2°53.106 9.5 14.3 9 17
2010-07-02 06:13:20 51°19.903 2°53.111 9.4 14.3 9 17
2010-07-02 06:13:25 51°19.923 2°53.116 9.3 14.3 9 16.9
2010-07-02 06:13:30 51°19.942 2°53.121 9.4 14.3 9 17
2010-07-02 06:13:35 51°19.962 2°53.127 9.6 14.3 9 17.2
2010-07-02 06:13:40 51°19.982 2°53.131 9.4 14.3 8 17.2
2010-07-02 06:13:45 51°20.001 2°53.136 9.4 14.3 9 17.3
2010-07-02 06:13:50 51°20.021 2°53.141 9.4 14.3 8 17.2
2010-07-02 06:13:55 51°20.04 2°53.146 9.3 14.3 9 17.3
2010-07-02 06:14:00 51°20.06 2°53.15 9.3 14.2 9 17.3
2010-07-02 06:14:05 51°20.079 2°53.156 9.4 14.3 10 17.3
2010-07-02 06:14:10 51°20.099 2°53.161 9.6 14.3 9 17.4
2010-07-02 06:14:15 51°20.119 2°53.166 9.7 14.2 9 17.4
2010-07-02 06:14:20 51°20.138 2°53.17 9.8 14.2 8 17.4
2010-07-02 06:14:25 51°20.158 2°53.174 9.1 14.2 7 17.5
2010-07-02 06:14:30 51°20.177 2°53.179 8.9 14.2 9 17.5
2010-07-02 06:14:35 51°20.197 2°53.183 9.3 14.3 8 17.5
2010-07-02 06:14:40 51°20.216 2°53.188 9.5 14.3 9 17.6
2010-07-02 06:14:45 51°20.236 2°53.193 9.6 14.3 8 17.6
2010-07-02 06:14:50 51°20.256 2°53.198 9.5 14.3 9 17.7
2010-07-02 06:14:56 51°20.279 2°53.203 9.7 14.3 8 17.5
2010-07-02 06:15:00 51°20.295 2°53.207 9.3 14.3 8 17.7
2010-07-02 06:15:05 51°20.314 2°53.212 9.7 14.4 9 17.7
2010-07-02 06:15:10 51°20.334 2°53.216 9.2 14.3 8 17.5
2010-07-02 06:15:16 51°20.358 2°53.222 9.7 14.4 9 17.7
2010-07-02 06:15:20 51°20.374 2°53.226 9.5 14.4 8 17.7
2010-07-02 06:15:24 51°20.389 2°53.23 9.5 14.4 9 17.7
2010-07-02 06:15:30 51°20.413 2°53.235 9.5 14.4 8 17.7
2010-07-02 06:15:35 51°20.433 2°53.241 9.7 14.5 9 17.7
2010-07-02 06:15:40 51°20.453 2°53.246 9.7 14.5 9 17.7
2010-07-02 06:15:45 51°20.473 2°53.251 9.8 14.5 10 17.7
2010-07-02 06:15:50 51°20.493 2°53.256 9.8 14.5 9 17.7
2010-07-02 06:15:55 51°20.512 2°53.261 9.8 14.4 9 17.7
2010-07-02 06:16:00 51°20.532 2°53.266 9.5 14.4 9 17.8
2010-07-02 06:16:05 51°20.552 2°53.271 9.4 14.4 9 17.7
2010-07-02 06:16:10 51°20.572 2°53.275 9.4 14.4 8 17.8
2010-07-02 06:16:16 51°20.595 2°53.281 9.1 14.4 8 17.8
2010-07-02 06:16:20 51°20.611 2°53.285 9 14.4 8 17.8
2010-07-02 06:16:24 51°20.627 2°53.288 9 14.3 8 17.7
2010-07-02 06:16:30 51°20.65 2°53.294 9.1 14.3 8 17.9
2010-07-02 06:16:36 51°20.674 2°53.299 9.3 14.4 8 17.9
2010-07-02 06:16:40 51°20.69 2°53.303 9.1 14.4 8 17.8
2010-07-02 06:16:45 51°20.709 2°53.307 9.1 14.4 8 17.8
2010-07-02 06:16:50 51°20.729 2°53.312 9.2 14.4 9 17.7
2010-07-02 06:16:56 51°20.753 2°53.317 9.5 14.4 8 17.8
2010-07-02 06:17:00 51°20.769 2°53.321 9.1 14.4 8 17.7
2010-07-02 06:17:05 51°20.789 2°53.326 9.2 14.4 8 17.8
2010-07-02 06:17:10 51°20.808 2°53.33 9.1 14.5 8 17.8
2010-07-02 06:17:16 51°20.832 2°53.336 8.9 14.4 9 17.8
2010-07-02 06:17:20 51°20.848 2°53.34 8.9 14.4 8 17.8
2010-07-02 06:17:25 51°20.868 2°53.345 9 14.5 8 17.7
2010-07-02 06:17:30 51°20.888 2°53.349 9 14.5 8 17.8
2010-07-02 06:17:36 51°20.912 2°53.355 9 14.4 8 17.8
2010-07-02 06:17:40 51°20.928 2°53.358 8.7 14.4 8 17.7
2010-07-02 06:17:45 51°20.947 2°53.363 8.8 14.4 8 17.8
2010-07-02 06:17:50 51°20.967 2°53.367 8.9 14.4 8 17.7
2010-07-02 06:17:55 51°20.987 2°53.371 8.8 14.4 8 17.7
2010-07-02 06:18:00 51°21.007 2°53.376 8.8 14.4 8 17.7
2010-07-02 06:18:05 51°21.026 2°53.38 9 14.4 9 17.7
2010-07-02 06:18:10 51°21.046 2°53.385 9.3 14.4 8 17.7
2010-07-02 06:18:15 51°21.066 2°53.39 9.2 14.4 8 17.8
2010-07-02 06:18:20 51°21.086 2°53.394 9.2 14.4 8 17.8
2010-07-02 06:18:25 51°21.105 2°53.399 9.3 14.4 9 17.7
2010-07-02 06:18:30 51°21.125 2°53.404 9.4 14.4 9 17.5
2010-07-02 06:18:35 51°21.145 2°53.409 9.5 14.5 9 17.5
2010-07-02 06:18:40 51°21.165 2°53.414 9.5 14.4 9 17.5
2010-07-02 06:18:45 51°21.185 2°53.418 9.4 14.4 8 17.5
2010-07-02 06:18:50 51°21.205 2°53.423 9.1 14.4 8 17.4
2010-07-02 06:18:55 51°21.224 2°53.428 9.2 14.4 9 17.5
2010-07-02 06:19:00 51°21.244 2°53.433 9.5 14.4 9 17.5
2010-07-02 06:19:05 51°21.264 2°53.437 9.5 14.4 9 17.3
2010-07-02 06:19:10 51°21.284 2°53.443 9.5 14.4 9 17.2
2010-07-02 06:19:15 51°21.304 2°53.447 9.6 14.4 8 17.1
2010-07-02 06:19:20 51°21.323 2°53.452 9.4 14.4 9 17.2
2010-07-02 06:19:25 51°21.343 2°53.457 9.4 14.4 9 17.3
2010-07-02 06:19:30 51°21.363 2°53.462 9.5 14.4 9 17.5
2010-07-02 06:19:35 51°21.383 2°53.467 9.5 14.4 8 17.5
2010-07-02 06:19:40 51°21.402 2°53.472 9.1 14.4 8 17.7
2010-07-02 06:19:45 51°21.422 2°53.476 9.1 14.4 9 17.6
2010-07-02 06:19:50 51°21.442 2°53.481 9.4 14.4 9 17.6
2010-07-02 06:19:56 51°21.466 2°53.487 9.5 14.4 9 17.6
2010-07-02 06:20:00 51°21.481 2°53.491 9.5 14.4 9 17.6
2010-07-02 06:20:05 51°21.501 2°53.496 9.4 14.4 10 17.6
2010-07-02 06:20:10 51°21.521 2°53.501 9.5 14.4 9 17.7
2010-07-02 06:20:15 51°21.54 2°53.506 9.2 14.4 9 17.7
2010-07-02 06:20:20 51°21.56 2°53.511 9.3 14.4 9 17.8
2010-07-02 06:20:25 51°21.58 2°53.516 9.1 14.4 9 17.7
2010-07-02 06:20:30 51°21.6 2°53.521 9.1 14.4 9 17.9
2010-07-02 06:20:35 51°21.619 2°53.526 9.1 14.4 9 17.8
2010-07-02 06:20:40 51°21.639 2°53.531 9.1 14.4 8 18.1
2010-07-02 06:20:45 51°21.659 2°53.535 8.9 14.4 9 17.9
2010-07-02 06:20:50 51°21.679 2°53.54 8.8 14.4 9 18.1
2010-07-02 06:20:56 51°21.702 2°53.546 8.8 14.5 8 18.1
2010-07-02 06:21:00 51°21.718 2°53.55 8.8 14.4 9 18.3
2010-07-02 06:21:05 51°21.738 2°53.555 9.1 14.4 9 18.5
2010-07-02 06:21:10 51°21.758 2°53.56 9.1 14.5 9 18.8
2010-07-02 06:21:16 51°21.781 2°53.566 9.4 14.5 10 18.8
2010-07-02 06:21:20 51°21.797 2°53.57 9.3 14.4 9 19.1
2010-07-02 06:21:24 51°21.813 2°53.574 9.3 14.4 10 19.2
2010-07-02 06:21:30 51°21.837 2°53.58 9.5 14.5 9 19.4
2010-07-02 06:21:36 51°21.86 2°53.587 9.4 14.5 10 19.6
2010-07-02 06:21:40 51°21.876 2°53.591 9.4 14.4 9 19.7
2010-07-02 06:21:45 51°21.896 2°53.596 9.5 14.5 10 20
2010-07-02 06:21:50 51°21.916 2°53.601 9.2 14.5 8 20
2010-07-02 06:21:56 51°21.939 2°53.607 9 14.5 10 20
2010-07-02 06:22:00 51°21.955 2°53.611 9 14.4 9 20
2010-07-02 06:22:05 51°21.975 2°53.616 9 14.5 9 20.2
2010-07-02 06:22:10 51°21.995 2°53.621 8.9 14.4 9 20.3
2010-07-02 06:22:16 51°22.019 2°53.627 9 14.4 9 20.1
2010-07-02 06:22:20 51°22.035 2°53.631 9 14.4 9 20.4
2010-07-02 06:22:24 51°22.05 2°53.635 9 14.4 9 20.4
2010-07-02 06:22:30 51°22.074 2°53.641 8.9 14.4 9 20.5
2010-07-02 06:22:35 51°22.094 2°53.645 8.8 14.5 9 20.7
2010-07-02 06:22:40 51°22.114 2°53.651 8.9 14.4 9 20.8
2010-07-02 06:22:45 51°22.134 2°53.655 9 14.4 9 21
2010-07-02 06:22:50 51°22.153 2°53.66 9.2 14.4 9 21
2010-07-02 06:22:55 51°22.173 2°53.665 9.3 14.4 9 21.3
2010-07-02 06:23:00 51°22.193 2°53.67 9.3 14.4 9 21.5
2010-07-02 06:23:05 51°22.213 2°53.675 9.4 14.4 9 21.7
2010-07-02 06:23:10 51°22.232 2°53.68 9.4 14.4 8 21.9
2010-07-02 06:23:15 51°22.252 2°53.685 9.3 14.4 9 22.2
2010-07-02 06:23:20 51°22.272 2°53.689 9.1 14.4 8 22.2
2010-07-02 06:23:25 51°22.292 2°53.694 9 14.5 8 22.5
2010-07-02 06:23:30 51°22.312 2°53.698 8.8 14.4 8 22.6
2010-07-02 06:23:35 51°22.332 2°53.702 9 14.4 8 22.7
2010-07-02 06:23:40 51°22.352 2°53.707 9.4 14.4 8 23.1
2010-07-02 06:23:45 51°22.371 2°53.712 9.4 14.5 8 23.1
2010-07-02 06:23:50 51°22.391 2°53.717 9.5 14.5 8 23.2
2010-07-02 06:23:56 51°22.415 2°53.722 9.3 14.5 8 23.3
2010-07-02 06:24:00 51°22.431 2°53.726 9.5 14.5 9 23.6
2010-07-02 06:24:05 51°22.451 2°53.73 9.5 14.5 8 23.5
2010-07-02 06:24:10 51°22.471 2°53.736 9.5 14.5 9 23.9
2010-07-02 06:24:16 51°22.495 2°53.741 9.6 14.6 8 23.9
2010-07-02 06:24:20 51°22.511 2°53.745 9.5 14.6 9 23.9
2010-07-02 06:24:24 51°22.527 2°53.749 9.5 14.6 8 24.5
2010-07-02 06:24:30 51°22.551 2°53.755 9.5 14.6 9 24.4
2010-07-02 06:24:36 51°22.575 2°53.761 9.5 14.6 9 24.3
2010-07-02 06:24:40 51°22.591 2°53.765 9.4 14.6 9 23.9
2010-07-02 06:24:45 51°22.611 2°53.77 9.5 14.6 9 24
2010-07-02 06:24:50 51°22.631 2°53.774 9.5 14.6 9 23.7
2010-07-02 06:24:55 51°22.651 2°53.78 9.5 14.6 9 23.9
2010-07-02 06:25:00 51°22.671 2°53.784 9.3 14.6 9 23.7
2010-07-02 06:25:05 51°22.691 2°53.79 9.5 14.6 9 23.5
2010-07-02 06:25:10 51°22.711 2°53.795 9.5 14.6 9 23.8
2010-07-02 06:25:16 51°22.735 2°53.801 9.6 14.7 10 23.5
2010-07-02 06:25:20 51°22.751 2°53.805 9.5 14.7 8 23.9
2010-07-02 06:25:24 51°22.767 2°53.81 9.4 14.7 10 23.9
2010-07-02 06:25:30 51°22.791 2°53.815 9.5 14.7 9 23.9
2010-07-02 06:25:35 51°22.812 2°53.821 9.5 14.7 10 23.8
2010-07-02 06:25:40 51°22.832 2°53.826 9.6 14.7 9 23.5
2010-07-02 06:25:45 51°22.852 2°53.832 9.6 14.7 10 23.2
2010-07-02 06:25:50 51°22.872 2°53.837 9.5 14.7 10 23.1
2010-07-02 06:25:55 51°22.892 2°53.842 9.4 14.7 9 21.8
2010-07-02 06:26:00 51°22.912 2°53.848 9.5 14.7 10 22.8
2010-07-02 06:26:05 51°22.932 2°53.854 9.5 14.7 10 21.7
2010-07-02 06:26:10 51°22.953 2°53.859 9.3 14.7 10 17.4
2010-07-02 06:26:15 51°22.973 2°53.865 9.5 14.7 10 22.4
2010-07-02 06:26:20 51°22.993 2°53.87 9.6 14.8 10 21.4
2010-07-02 06:26:25 51°23.013 2°53.876 9.4 14.8 10 21.9
2010-07-02 06:26:30 51°23.033 2°53.881 9.2 14.8 10 22.3
2010-07-02 06:26:35 51°23.054 2°53.887 9.5 14.8 10 22.7
2010-07-02 06:26:40 51°23.074 2°53.893 9.5 14.8 10 22.6
2010-07-02 06:26:45 51°23.094 2°53.898 9.2 14.8 10 22.4
2010-07-02 06:26:50 51°23.114 2°53.903 9 14.8 9 21.4
2010-07-02 06:26:55 51°23.135 2°53.909 8.8 14.8 10 22
2010-07-02 06:27:00 51°23.155 2°53.914 9 14.8 9 23.1
2010-07-02 06:27:05 51°23.175 2°53.919 8.8 14.8 9 22.7
2010-07-02 06:27:10 51°23.195 2°53.924 8.8 14.7 9 22.1
2010-07-02 06:27:15 51°23.215 2°53.93 9 14.8 9 20.5
2010-07-02 06:27:20 51°23.236 2°53.935 9 14.7 9 22.2
2010-07-02 06:27:25 51°23.256 2°53.94 9.2 14.7 8 21.8
2010-07-02 06:27:30 51°23.276 2°53.944 8.6 14.7 8 21.6
2010-07-02 06:27:35 51°23.296 2°53.949 8.5 14.6 8 20.7
2010-07-02 06:27:40 51°23.316 2°53.953 8.7 14.6 8 21.6
2010-07-02 06:27:45 51°23.336 2°53.958 8.9 14.6 9 21.6
2010-07-02 06:27:50 51°23.356 2°53.963 9.2 14.6 9 21.6
2010-07-02 06:27:55 51°23.376 2°53.968 9.6 14.6 9 21.2
2010-07-02 06:28:00 51°23.396 2°53.973 9.5 14.6 9 21
2010-07-02 06:28:05 51°23.416 2°53.978 9.5 14.6 9 20.1
2010-07-02 06:28:10 51°23.436 2°53.983 9.5 14.6 10 21.3
2010-07-02 06:28:15 51°23.456 2°53.988 9.7 14.6 9 21.6
2010-07-02 06:28:20 51°23.476 2°53.994 9.7 14.6 9 21.5
2010-07-02 06:28:25 51°23.496 2°53.998 9.3 14.6 8 21.5
2010-07-02 06:28:30 51°23.516 2°54.003 9.2 14.6 9 20.9
2010-07-02 06:28:35 51°23.536 2°54.007 9.2 14.6 8 19.9
2010-07-02 06:28:40 51°23.556 2°54.012 9 14.5 8 20.3
2010-07-02 06:28:45 51°23.576 2°54.017 8.8 14.5 8 21.6
2010-07-02 06:28:50 51°23.597 2°54.021 9.3 14.5 8 21.6
2010-07-02 06:28:55 51°23.617 2°54.025 9.1 14.5 8 20.2
2010-07-02 06:29:00 51°23.636 2°54.03 9.2 14.5 8 19.6
2010-07-02 06:29:04 51°23.652 2°54.033 9.4 14.5 9 21.4
2010-07-02 06:29:10 51°23.676 2°54.039 10 14.5 9 21.6
2010-07-02 06:29:15 51°23.696 2°54.044 9.8 14.5 9 21.8
2010-07-02 06:29:20 51°23.715 2°54.049 9.6 14.5 8 21.7
2010-07-02 06:29:24 51°23.731 2°54.052 9.4 14.5 8 21.5
2010-07-02 06:29:30 51°23.755 2°54.058 9.4 14.5 9 21.1
2010-07-02 06:29:35 51°23.775 2°54.063 9.5 14.5 8 21.5
2010-07-02 06:29:40 51°23.795 2°54.068 9.6 14.5 9 21.3
2010-07-02 06:29:45 51°23.815 2°54.072 9.3 14.5 8 22.1
2010-07-02 06:29:50 51°23.835 2°54.076 9.2 14.5 8 21.8
2010-07-02 06:29:56 51°23.859 2°54.081 9 14.5 8 22
2010-07-02 06:30:00 51°23.875 2°54.085 9 14.5 8 22.2
2010-07-02 06:30:05 51°23.895 2°54.089 9 14.5 8 22.2
2010-07-02 06:30:10 51°23.915 2°54.093 9 14.5 8 22.2
2010-07-02 06:30:16 51°23.939 2°54.099 9.1 14.5 8 22.4
2010-07-02 06:30:20 51°23.955 2°54.103 9.5 14.5 9 22.3
2010-07-02 06:30:24 51°23.97 2°54.107 9.8 14.5 8 22.5
2010-07-02 06:30:30 51°23.994 2°54.112 9.8 14.5 8 22.4
2010-07-02 06:30:36 51°24.018 2°54.117 9.1 14.5 8 22.2
2010-07-02 06:30:40 51°24.034 2°54.121 9.5 14.5 9 22.4
2010-07-02 06:30:45 51°24.054 2°54.125 9.2 14.5 7 22.6
2010-07-02 06:30:50 51°24.074 2°54.13 8.9 14.5 8 23.1
2010-07-02 06:30:56 51°24.098 2°54.135 8.9 14.4 7 22.7
2010-07-02 06:31:00 51°24.114 2°54.138 8.9 14.4 8 22.5
2010-07-02 06:31:04 51°24.129 2°54.141 8.6 14.4 8 22.2
2010-07-02 06:31:10 51°24.153 2°54.147 9.5 14.4 9 22.4
2010-07-02 06:31:15 51°24.173 2°54.151 9.5 14.5 7 23.3
2010-07-02 06:31:20 51°24.193 2°54.156 9.1 14.5 9 23.1
2010-07-02 06:31:25 51°24.213 2°54.16 9.6 14.5 7 22.9
2010-07-02 06:31:30 51°24.233 2°54.165 9.1 14.5 8 22.8
2010-07-02 06:31:35 51°24.253 2°54.169 9.1 14.5 8 22.6
2010-07-02 06:31:40 51°24.272 2°54.174 9.5 14.5 9 22
2010-07-02 06:31:45 51°24.292 2°54.178 9.7 14.5 7 20.7
2010-07-02 06:31:50 51°24.312 2°54.182 9.4 14.5 8 22
2010-07-02 06:31:56 51°24.336 2°54.188 9.5 14.5 9 22.5
2010-07-02 06:32:00 51°24.352 2°54.192 9.5 14.5 7 22.2
2010-07-02 06:32:04 51°24.368 2°54.195 9.4 14.5 8 22.1
2010-07-02 06:32:10 51°24.392 2°54.2 9.4 14.5 7 19.6
2010-07-02 06:32:15 51°24.412 2°54.205 9.2 14.5 8 20.6
2010-07-02 06:32:20 51°24.432 2°54.209 9.3 14.5 7 20.9
2010-07-02 06:32:25 51°24.452 2°54.214 9.3 14.5 8 20.7
2010-07-02 06:32:30 51°24.471 2°54.218 9.5 14.5 8 20.4
2010-07-02 06:32:36 51°24.495 2°54.224 9.4 14.5 8 19.6
2010-07-02 06:32:40 51°24.511 2°54.227 9.4 14.5 8 19.2
2010-07-02 06:32:45 51°24.531 2°54.231 9 14.5 7 19.5
2010-07-02 06:32:50 51°24.551 2°54.236 8.9 14.5 8 18.6
2010-07-02 06:32:56 51°24.575 2°54.241 8.9 14.5 8 19.2
2010-07-02 06:33:00 51°24.591 2°54.244 9.4 14.5 8 19.4
2010-07-02 06:33:04 51°24.607 2°54.248 9.2 14.5 8 18.5
2010-07-02 06:33:10 51°24.631 2°54.253 9.2 14.6 8 18.5
2010-07-02 06:33:15 51°24.651 2°54.257 9 14.6 8 19
2010-07-02 06:33:20 51°24.671 2°54.261 9.4 14.5 8 18.7
2010-07-02 06:33:25 51°24.691 2°54.266 9.2 14.5 8 17.6
2010-07-02 06:33:30 51°24.711 2°54.27 9.2 14.5 8 18.3
2010-07-02 06:33:36 51°24.735 2°54.275 9.3 14.5 8 18.6
2010-07-02 06:33:40 51°24.751 2°54.278 9.4 14.5 8 18.7
2010-07-02 06:33:45 51°24.771 2°54.282 9.4 14.5 7 18.3
2010-07-02 06:33:50 51°24.791 2°54.287 9.4 14.5 8 18.6
2010-07-02 06:33:55 51°24.811 2°54.291 9.1 14.5 7 18.8
2010-07-02 06:34:00 51°24.831 2°54.296 9.3 14.5 9 17.5
2010-07-02 06:34:05 51°24.851 2°54.3 9.4 14.6 7 18.8
2010-07-02 06:34:10 51°24.871 2°54.305 9.2 14.6 8 19.5
2010-07-02 06:34:15 51°24.891 2°54.309 8.9 14.6 7 19.6
2010-07-02 06:34:20 51°24.911 2°54.313 9.2 14.6 8 19.6
2010-07-02 06:34:24 51°24.927 2°54.315 8.8 14.6 6 19.8
2010-07-02 06:34:30 51°24.951 2°54.321 8.9 14.6 9 20.1
2010-07-02 06:34:35 51°24.971 2°54.325 9.1 14.6 7 20.8
2010-07-02 06:34:40 51°24.991 2°54.33 9.4 14.6 8 21.1
2010-07-02 06:34:45 51°25.011 2°54.334 9.5 14.6 8 20.9
2010-07-02 06:34:50 51°25.032 2°54.339 9.6 14.6 8 20.8
2010-07-02 06:34:55 51°25.052 2°54.344 9.6 14.6 8 20.9
2010-07-02 06:35:00 51°25.072 2°54.348 9.5 14.6 8 21.1
2010-07-02 06:35:05 51°25.092 2°54.353 9.2 14.6 8 21.4
2010-07-02 06:35:10 51°25.112 2°54.358 9.5 14.6 8 21.7
2010-07-02 06:35:16 51°25.136 2°54.363 9.2 14.6 8 21.9
2010-07-02 06:35:20 51°25.152 2°54.367 9.3 14.6 9 22
2010-07-02 06:35:24 51°25.168 2°54.37 9.2 14.6 8 22.1
2010-07-02 06:35:30 51°25.192 2°54.375 9 14.6 8 21.9
2010-07-02 06:35:35 51°25.212 2°54.38 8.9 14.6 7 21.7
2010-07-02 06:35:40 51°25.232 2°54.384 8.7 14.6 8 21.3
2010-07-02 06:35:45 51°25.252 2°54.389 9.2 14.6 8 21
2010-07-02 06:35:50 51°25.272 2°54.393 9.2 14.6 8 21.2
2010-07-02 06:35:55 51°25.293 2°54.397 9.1 14.6 8 21.2
2010-07-02 06:36:00 51°25.313 2°54.402 9.1 14.6 8 21.5
2010-07-02 06:36:05 51°25.333 2°54.406 9.1 14.6 8 21.5
2010-07-02 06:36:10 51°25.353 2°54.41 8.9 14.6 8 21.5
2010-07-02 06:36:15 51°25.373 2°54.414 8.8 14.6 8 21.5
2010-07-02 06:36:20 51°25.393 2°54.419 9 14.6 8 21.5
2010-07-02 06:36:25 51°25.413 2°54.423 9.4 14.6 8 21.3
2010-07-02 06:36:30 51°25.433 2°54.428 9.5 14.6 7 21
2010-07-02 06:36:35 51°25.453 2°54.432 9.3 14.6 8 20.9
2010-07-02 06:36:40 51°25.473 2°54.436 9.3 14.6 7 19.4
2010-07-02 06:36:45 51°25.493 2°54.44 8.9 14.6 8 20.6
2010-07-02 06:36:50 51°25.513 2°54.445 9.2 14.5 8 21.1
2010-07-02 06:36:56 51°25.537 2°54.45 9.2 14.6 8 21.5
2010-07-02 06:37:00 51°25.553 2°54.454 9.5 14.6 9 21.9
2010-07-02 06:37:04 51°25.569 2°54.457 9.5 14.6 8 21.9
2010-07-02 06:37:10 51°25.593 2°54.463 9.4 14.6 8 21.6
2010-07-02 06:37:15 51°25.613 2°54.468 9.4 14.6 8 21.8
2010-07-02 06:37:20 51°25.633 2°54.473 9.7 14.6 9 21.5
2010-07-02 06:37:25 51°25.653 2°54.477 9.6 14.6 8 22.1
2010-07-02 06:37:30 51°25.674 2°54.482 9.5 14.6 9 22.5
2010-07-02 06:37:36 51°25.698 2°54.488 9.5 14.7 8 22.6
2010-07-02 06:37:40 51°25.714 2°54.492 9.5 14.7 9 22.8
2010-07-02 06:37:45 51°25.734 2°54.496 9.6 14.7 9 23.1
2010-07-02 06:37:50 51°25.754 2°54.501 9.5 14.7 9 23.3
2010-07-02 06:37:56 51°25.778 2°54.507 9.5 14.7 9 23.6
2010-07-02 06:38:00 51°25.794 2°54.511 9.5 14.7 9 23.7
2010-07-02 06:38:05 51°25.815 2°54.516 9.5 14.7 9 24
2010-07-02 06:38:10 51°25.835 2°54.521 9.5 14.7 9 23.9
2010-07-02 06:38:15 51°25.855 2°54.526 9.5 14.7 9 24.1
2010-07-02 06:38:20 51°25.875 2°54.531 9.5 14.7 9 24.2
2010-07-02 06:38:25 51°25.895 2°54.536 9.4 14.7 9 24.4
2010-07-02 06:38:30 51°25.916 2°54.541 9.4 14.7 8 24.5
2010-07-02 06:38:36 51°25.94 2°54.547 9.2 14.7 9 24.5
2010-07-02 06:38:40 51°25.956 2°54.55 9.3 14.7 8 24.7
2010-07-02 06:38:45 51°25.976 2°54.555 9.4 14.7 9 24.6
2010-07-02 06:38:50 51°25.996 2°54.56 9.5 14.7 9 24.9
2010-07-02 06:38:55 51°26.016 2°54.566 9.5 14.7 9 24.6
2010-07-02 06:39:00 51°26.037 2°54.571 9.6 14.7 9 24.8
2010-07-02 06:39:05 51°26.057 2°54.576 9.7 14.7 9 24.8
2010-07-02 06:39:10 51°26.077 2°54.581 9.4 14.7 8 25
2010-07-02 06:39:15 51°26.097 2°54.586 9.2 14.7 9 25
2010-07-02 06:39:20 51°26.117 2°54.59 9.3 14.7 8 24.8
2010-07-02 06:39:25 51°26.137 2°54.595 9.3 14.7 9 24.7
2010-07-02 06:39:30 51°26.157 2°54.6 9.3 14.7 8 25.2
2010-07-02 06:39:35 51°26.178 2°54.606 9.7 14.7 9 24.8
2010-07-02 06:39:40 51°26.198 2°54.61 9.5 14.7 8 25
2010-07-02 06:39:45 51°26.218 2°54.615 9.3 14.7 9 25
2010-07-02 06:39:50 51°26.238 2°54.62 9.5 14.7 8 24.8
2010-07-02 06:39:56 51°26.262 2°54.626 9.3 14.8 9 25.8
2010-07-02 06:40:00 51°26.278 2°54.63 9.3 14.7 8 25.7
2010-07-02 06:40:05 51°26.299 2°54.634 8.9 14.8 9 25.9
2010-07-02 06:40:10 51°26.319 2°54.639 9.1 14.8 9 25.8
2010-07-02 06:40:15 51°26.339 2°54.644 9 14.8 9 26.1
2010-07-02 06:40:20 51°26.36 2°54.649 9.2 14.8 9 26.3
2010-07-02 06:40:25 51°26.38 2°54.654 9.4 14.8 9 26.6
2010-07-02 06:40:30 51°26.4 2°54.66 9.4 14.8 9 26.7
2010-07-02 06:40:35 51°26.421 2°54.665 9.1 14.9 9 27
2010-07-02 06:40:40 51°26.441 2°54.67 9.5 14.9 10 26.9
2010-07-02 06:40:45 51°26.461 2°54.676 9.5 14.9 10 26.9
2010-07-02 06:40:50 51°26.481 2°54.682 9.7 14.9 10 26.7
2010-07-02 06:40:56 51°26.506 2°54.689 9.7 14.9 10 27
2010-07-02 06:41:00 51°26.522 2°54.693 9.8 14.9 10 27
2010-07-02 06:41:04 51°26.538 2°54.697 9.4 14.9 9 27.1
2010-07-02 06:41:10 51°26.563 2°54.702 8.7 14.8 8 27.2
2010-07-02 06:41:15 51°26.583 2°54.707 7.3 14.8 7 25.9
2010-07-02 06:41:20 51°26.604 2°54.711 6.7 14.8 7 26.1
2010-07-02 06:41:25 51°26.624 2°54.713 5.8 14.8 5 26.7
2010-07-02 06:41:30 51°26.644 2°54.717 5.2 14.8 6 26.5
2010-07-02 06:41:36 51°26.669 2°54.721 4.6 14.8 5 26.7
2010-07-02 06:41:40 51°26.685 2°54.724 4.4 14.8 6 26.7
2010-07-02 06:41:45 51°26.706 2°54.727 4 14.8 5 26.9
2010-07-02 06:41:50 51°26.726 2°54.729 3.9 14.8 5 26.9
2010-07-02 06:41:56 51°26.751 2°54.733 3.7 14.8 5 27
2010-07-02 06:42:00 51°26.767 2°54.735 3.5 14.8 5 27.1
2010-07-02 06:42:05 51°26.787 2°54.738 3.3 14.7 5 27.1
2010-07-02 06:42:10 51°26.808 2°54.741 3.7 14.8 5 27.1
2010-07-02 06:42:16 51°26.832 2°54.744 3.6 14.8 5 26.9
2010-07-02 06:42:20 51°26.849 2°54.746 3.5 14.8 5 26.7
2010-07-02 06:42:25 51°26.869 2°54.749 3.4 14.8 5 27.1
2010-07-02 06:42:30 51°26.89 2°54.752 3.7 14.8 5 27.5
2010-07-02 06:42:36 51°26.914 2°54.756 3.8 14.8 5 27.6
2010-07-02 06:42:40 51°26.931 2°54.758 3.9 14.8 5 27.9
2010-07-02 06:42:45 51°26.951 2°54.761 3.9 14.8 5 28.4
2010-07-02 06:42:50 51°26.972 2°54.763 4 14.8 4 28.6
2010-07-02 06:42:55 51°26.992 2°54.766 3.7 14.8 4 28.6
2010-07-02 06:43:00 51°27.012 2°54.768 3.6 14.7 4 28.5
2010-07-02 06:43:05 51°27.033 2°54.77 3.3 14.8 4 28.7
2010-07-02 06:43:10 51°27.053 2°54.772 3.6 14.7 3 28.9
2010-07-02 06:43:16 51°27.077 2°54.772 2.9 14.6 1 29
2010-07-02 06:43:20 51°27.093 2°54.774 3 14.6 2 28.8
2010-07-02 06:43:24 51°27.109 2°54.774 3 14.5 -999 28.8
2010-07-02 06:43:30 51°27.133 2°54.776 3.2 14.5 3 29.1
2010-07-02 06:43:35 51°27.153 2°54.776 3.7 14.4 2 29.5
2010-07-02 06:43:40 51°27.173 2°54.778 3.8 14.4 3 29.6
2010-07-02 06:43:45 51°27.193 2°54.779 4.1 14.4 2 29.9
2010-07-02 06:43:50 51°27.213 2°54.781 4.3 14.4 3 30.1
2010-07-02 06:43:56 51°27.237 2°54.783 4.5 14.5 2 29.8
2010-07-02 06:44:00 51°27.254 2°54.784 4.3 14.5 3 29.8
2010-07-02 06:44:04 51°27.27 2°54.785 4.3 14.4 2 30.2
2010-07-02 06:44:10 51°27.294 2°54.788 4.5 14.4 4 30.3
2010-07-02 06:44:15 51°27.313 2°54.788 4.2 14.4 1 30
2010-07-02 06:44:20 51°27.333 2°54.791 4.4 14.4 3 30.2
2010-07-02 06:44:25 51°27.353 2°54.794 4.4 14.5 2 30
2010-07-02 06:44:30 51°27.373 2°54.794 4.1 14.5 3 30.2
2010-07-02 06:44:36 51°27.398 2°54.796 4.5 14.5 3 30.2
2010-07-02 06:44:40 51°27.414 2°54.797 4.7 14.4 3 30.3
2010-07-02 06:44:45 51°27.433 2°54.798 4.6 14.4 2 29.9
2010-07-02 06:44:50 51°27.453 2°54.799 4.2 14.4 2 29.9
2010-07-02 06:44:55 51°27.473 2°54.801 4.1 14.4 3 30
2010-07-02 06:45:00 51°27.493 2°54.802 4.4 14.4 3 30
2010-07-02 06:45:05 51°27.513 2°54.804 4.8 14.4 3 29.8
2010-07-02 06:45:10 51°27.533 2°54.806 4.6 14.4 3 29.7
2010-07-02 06:45:15 51°27.553 2°54.808 4.4 14.4 3 28.9
2010-07-02 06:45:20 51°27.573 2°54.81 4.4 14.3 3 28.6
2010-07-02 06:45:25 51°27.593 2°54.811 4.4 14.4 3 29.6
2010-07-02 06:45:30 51°27.613 2°54.813 4.2 14.4 3 29.3
2010-07-02 06:45:36 51°27.637 2°54.815 4.5 14.4 3 29.3
2010-07-02 06:45:40 51°27.653 2°54.816 4.5 14.4 3 29.1
2010-07-02 06:45:45 51°27.672 2°54.818 4.7 14.4 3 28.7
2010-07-02 06:45:50 51°27.692 2°54.82 4.4 14.4 3 28.2
2010-07-02 06:45:55 51°27.713 2°54.822 4.4 14.4 3 28.6
2010-07-02 06:46:00 51°27.733 2°54.823 4 14.4 2 28.2
2010-07-02 06:46:05 51°27.753 2°54.825 3.9 14.4 3 27.5
2010-07-02 06:46:10 51°27.773 2°54.826 4.1 14.5 3 28.3
2010-07-02 06:46:15 51°27.793 2°54.828 4.3 14.5 3 28.3
2010-07-02 06:46:20 51°27.813 2°54.83 4.5 14.5 4 28.5
2010-07-02 06:46:25 51°27.833 2°54.832 4.6 14.5 3 28.9
2010-07-02 06:46:30 51°27.853 2°54.834 4.5 14.4 3 28.3
2010-07-02 06:46:35 51°27.873 2°54.836 4.3 14.4 3 26.7
2010-07-02 06:46:40 51°27.893 2°54.836 3.7 14.4 2 27.8
2010-07-02 06:46:45 51°27.912 2°54.838 3.8 14.4 2 27.8
2010-07-02 06:46:50 51°27.933 2°54.839 3.6 14.4 1 27.1
2010-07-02 06:46:55 51°27.953 2°54.84 3.4 14.4 2 25
2010-07-02 06:47:00 51°27.973 2°54.841 3.7 14.4 2 25.3
2010-07-02 06:47:04 51°27.989 2°54.842 4.3 14.4 3 26.1
2010-07-02 06:47:10 51°28.013 2°54.845 4.4 14.4 3 24.8
2010-07-02 06:47:15 51°28.033 2°54.847 4.7 14.5 4 23.6
2010-07-02 06:47:20 51°28.053 2°54.848 4.4 14.5 3 24.4
2010-07-02 06:47:25 51°28.073 2°54.85 4.5 14.5 4 24.7
2010-07-02 06:47:30 51°28.093 2°54.852 4 14.5 3 24.2
2010-07-02 06:47:36 51°28.118 2°54.855 4.3 14.4 4 23
2010-07-02 06:47:40 51°28.134 2°54.856 4.4 14.4 3 21.6
2010-07-02 06:47:45 51°28.154 2°54.858 4.3 14.4 3 21.5
2010-07-02 06:47:50 51°28.174 2°54.859 4 14.5 2 22.1
2010-07-02 06:47:55 51°28.194 2°54.861 3.9 14.5 3 22.8
2010-07-02 06:48:00 51°28.214 2°54.863 4.4 14.5 3 23.1
2010-07-02 06:48:05 51°28.234 2°54.864 4.5 14.5 2 22.9
2010-07-02 06:48:10 51°28.254 2°54.865 4.2 14.5 3 22.8
2010-07-02 06:48:15 51°28.274 2°54.866 4.1 14.5 1 21.9
2010-07-02 06:48:20 51°28.294 2°54.867 3.7 14.5 2 20.9
2010-07-02 06:48:25 51°28.314 2°54.868 4 14.5 2 21.5
2010-07-02 06:48:30 51°28.334 2°54.869 4.3 14.4 2 22.3
2010-07-02 06:48:36 51°28.358 2°54.871 4.2 14.4 3 22.5
2010-07-02 06:48:40 51°28.374 2°54.871 4.3 14.5 2 22.1
2010-07-02 06:48:45 51°28.394 2°54.873 4.2 14.4 2 20.8
2010-07-02 06:48:50 51°28.415 2°54.874 4.5 14.4 2 21.6
2010-07-02 06:48:56 51°28.439 2°54.876 4.6 14.5 3 22.3
2010-07-02 06:49:00 51°28.455 2°54.878 4.6 14.5 3 22.5
2010-07-02 06:49:05 51°28.475 2°54.879 4.6 14.5 3 22.6
2010-07-02 06:49:10 51°28.495 2°54.882 4.5 14.5 3 22.8
2010-07-02 06:49:15 51°28.515 2°54.883 4.8 14.5 2 22.9
2010-07-02 06:49:20 51°28.535 2°54.885 4.4 14.5 3 20.7
2010-07-02 06:49:25 51°28.555 2°54.886 4.4 14.5 2 22
2010-07-02 06:49:30 51°28.575 2°54.887 4.3 14.5 3 21.1
2010-07-02 06:49:35 51°28.595 2°54.888 4 14.5 2 21.6
2010-07-02 06:49:40 51°28.615 2°54.89 3.9 14.5 3 22.5
2010-07-02 06:49:45 51°28.635 2°54.891 4.3 14.5 2 23.3
2010-07-02 06:49:50 51°28.656 2°54.893 4.3 14.5 3 22.6
2010-07-02 06:49:55 51°28.676 2°54.894 4.2 14.5 2 21.8
2010-07-02 06:50:00 51°28.696 2°54.896 4 14.5 3 22.4
2010-07-02 06:50:05 51°28.716 2°54.897 4.3 14.5 3 22.7
2010-07-02 06:50:10 51°28.736 2°54.899 4.7 14.5 3 23.5
2010-07-02 06:50:16 51°28.76 2°54.9 4.4 14.5 2 24.2
2010-07-02 06:50:20 51°28.776 2°54.902 4.5 14.5 3 23.9
2010-07-02 06:50:25 51°28.796 2°54.903 4.4 14.5 2 23.9
2010-07-02 06:50:30 51°28.816 2°54.905 4.4 14.4 3 24
2010-07-02 06:50:35 51°28.836 2°54.906 4.1 14.4 2 24.4
2010-07-02 06:50:40 51°28.856 2°54.908 4.4 14.4 3 24.7
2010-07-02 06:50:45 51°28.876 2°54.909 4.5 14.4 3 25
2010-07-02 06:50:50 51°28.896 2°54.911 4.4 14.4 3 25.3
2010-07-02 06:50:55 51°28.916 2°54.913 4.4 14.4 4 25.7
2010-07-02 06:51:00 51°28.936 2°54.914 4.6 14.3 2 26.1
2010-07-02 06:51:05 51°28.956 2°54.915 4.2 14.3 2 26.1
2010-07-02 06:51:10 51°28.976 2°54.915 3.7 14.3 1 26.3
2010-07-02 06:51:16 51°29 2°54.917 3.5 14.3 2 26.5
2010-07-02 06:51:20 51°29.015 2°54.917 4 14.3 2 26.7
2010-07-02 06:51:25 51°29.035 2°54.918 4 14.4 2 26.6
2010-07-02 06:51:30 51°29.055 2°54.919 4.4 14.4 1 26.7
2010-07-02 06:51:35 51°29.075 2°54.92 4.2 14.4 2 26.8
2010-07-02 06:51:40 51°29.095 2°54.922 4.4 14.4 2 26.9
2010-07-02 06:51:45 51°29.115 2°54.923 4.6 14.4 2 26.9
2010-07-02 06:51:50 51°29.135 2°54.924 4.4 14.4 2 27.1
2010-07-02 06:51:55 51°29.155 2°54.925 4.1 14.3 2 27.2
2010-07-02 06:52:00 51°29.175 2°54.926 4.1 14.3 2 27.2
2010-07-02 06:52:05 51°29.195 2°54.928 4.4 14.3 2 27.3
2010-07-02 06:52:10 51°29.214 2°54.928 4.7 14.3 2 27.4
2010-07-02 06:52:15 51°29.234 2°54.929 4.5 14.3 1 27.4
2010-07-02 06:52:20 51°29.254 2°54.93 4.3 14.3 2 27.4
2010-07-02 06:52:25 51°29.274 2°54.931 4.5 14.3 1 27.4
2010-07-02 06:52:30 51°29.294 2°54.932 4.4 14.3 2 27.6
2010-07-02 06:52:35 51°29.314 2°54.932 4.4 14.3 1 27.7
2010-07-02 06:52:40 51°29.334 2°54.933 3.9 14.3 1 27.8
2010-07-02 06:52:45 51°29.354 2°54.934 4.1 14.4 2 27.8
2010-07-02 06:52:50 51°29.373 2°54.934 4.2 14.4 1 28
2010-07-02 06:52:55 51°29.393 2°54.935 4.4 14.4 2 28
2010-07-02 06:53:00 51°29.413 2°54.936 4.5 14.4 2 28
2010-07-02 06:53:05 51°29.433 2°54.937 4.3 14.4 1 27.8
2010-07-02 06:53:10 51°29.452 2°54.94 4.5 14.5 2 27.8
2010-07-02 06:53:16 51°29.477 2°54.94 4.4 14.4 1 28
2010-07-02 06:53:20 51°29.493 2°54.942 4.4 14.5 2 28.2
2010-07-02 06:53:25 51°29.513 2°54.942 4.4 14.4 3 28.2
2010-07-02 06:53:30 51°29.533 2°54.944 4.4 14.5 2 28.3
2010-07-02 06:53:35 51°29.553 2°54.945 4.4 14.6 2 28.5
2010-07-02 06:53:40 51°29.574 2°54.946 4.8 14.6 3 28.6
2010-07-02 06:53:45 51°29.594 2°54.948 4.8 14.5 2 28.9
2010-07-02 06:53:50 51°29.614 2°54.95 5 14.5 4 28.9
2010-07-02 06:53:55 51°29.634 2°54.952 5.1 14.5 3 28.9
2010-07-02 06:54:00 51°29.654 2°54.954 5 14.5 4 28.9
2010-07-02 06:54:05 51°29.675 2°54.955 4.9 14.5 4 29.1
2010-07-02 06:54:10 51°29.696 2°54.955 4.5 14.5 3 28.9
2010-07-02 06:54:16 51°29.719 2°54.959 4.1 14.6 3 28.9
2010-07-02 06:54:20 51°29.735 2°54.961 4.2 14.6 3 28.9
2010-07-02 06:54:25 51°29.755 2°54.963 3.9 14.5 2 28.9
2010-07-02 06:54:30 51°29.775 2°54.965 4 14.5 3 28.8
2010-07-02 06:54:35 51°29.795 2°54.966 4.1 14.6 3 28.7
2010-07-02 06:54:40 51°29.815 2°54.969 4.5 14.6 5 28.9
2010-07-02 06:54:45 51°29.835 2°54.973 5 14.6 5 29
2010-07-02 06:54:50 51°29.856 2°54.976 5.2 14.6 6 29.3
2010-07-02 06:54:55 51°29.876 2°54.979 5.4 14.7 6 29.9
2010-07-02 06:55:00 51°29.896 2°54.982 5.2 14.6 6 30.2
2010-07-02 06:55:05 51°29.916 2°54.985 4.6 14.7 5 30.4
2010-07-02 06:55:10 51°29.936 2°54.987 4.5 14.7 5 30.6
2010-07-02 06:55:16 51°29.961 2°54.991 4.2 14.7 5 31.1
2010-07-02 06:55:20 51°29.977 2°54.993 4.2 14.7 5 31.2
2010-07-02 06:55:25 51°29.997 2°54.996 4.2 14.7 6 31.7
2010-07-02 06:55:30 51°30.018 2°55 4.2 14.7 6 32.1
2010-07-02 06:55:35 51°30.038 2°55.003 4.2 14.8 6 32.5
2010-07-02 06:55:40 51°30.058 2°55.006 4.1 14.7 6 33
2010-07-02 06:55:45 51°30.079 2°55.01 3.9 14.8 6 33.3
2010-07-02 06:55:50 51°30.099 2°55.013 4.4 14.8 6 33.3
2010-07-02 06:55:55 51°30.12 2°55.017 4.1 14.8 7 33.4
2010-07-02 06:56:00 51°30.14 2°55.02 4.1 14.8 6 33.9
2010-07-02 06:56:05 51°30.161 2°55.024 4.3 14.8 6 34.5
2010-07-02 06:56:10 51°30.181 2°55.029 4.5 14.9 7 34.9
2010-07-02 06:56:15 51°30.201 2°55.032 4.4 14.8 6 35.1
2010-07-02 06:56:20 51°30.222 2°55.036 4.3 14.8 7 35.2
2010-07-02 06:56:25 51°30.242 2°55.039 4.1 14.9 6 35.2
2010-07-02 06:56:30 51°30.263 2°55.043 3.9 14.9 6 35.6
2010-07-02 06:56:35 51°30.284 2°55.046 3.8 14.8 6 35.7
2010-07-02 06:56:40 51°30.304 2°55.05 3.8 14.9 6 35.9
2010-07-02 06:56:45 51°30.324 2°55.053 3.6 14.9 6 36.4
2010-07-02 06:56:50 51°30.345 2°55.057 3.9 14.9 6 36.1
2010-07-02 06:56:55 51°30.366 2°55.061 4 14.8 6 36.1
2010-07-02 06:57:00 51°30.386 2°55.064 3.9 14.8 6 36.2
2010-07-02 06:57:05 51°30.406 2°55.068 4.1 14.9 6 36.4
2010-07-02 06:57:10 51°30.427 2°55.071 4.1 14.9 6 36.3
2010-07-02 06:57:15 51°30.447 2°55.075 4.1 14.8 6 36.6
2010-07-02 06:57:20 51°30.468 2°55.078 4 14.8 6 36.8
2010-07-02 06:57:25 51°30.488 2°55.081 3.7 14.8 5 36.8
2010-07-02 06:57:30 51°30.509 2°55.085 3.7 14.8 6 36.8
2010-07-02 06:57:35 51°30.529 2°55.088 3.8 14.8 6 36.6
2010-07-02 06:57:40 51°30.549 2°55.092 3.9 14.8 6 36.5
2010-07-02 06:57:45 51°30.57 2°55.096 4.4 14.7 7 37.1
2010-07-02 06:57:50 51°30.59 2°55.1 5.9 14.8 8 37.2
2010-07-02 06:57:55 51°30.61 2°55.106 6.9 14.8 10 37.4
2010-07-02 06:58:00 51°30.63 2°55.111 7.4 14.8 9 37.5
2010-07-02 06:58:05 51°30.651 2°55.117 8.1 14.8 10 37.1
2010-07-02 06:58:10 51°30.671 2°55.122 8.4 14.7 9 37.2
2010-07-02 06:58:15 51°30.691 2°55.128 8.8 14.8 11 36.9
2010-07-02 06:58:20 51°30.711 2°55.134 8.9 14.7 10 35.4
2010-07-02 06:58:25 51°30.731 2°55.14 9.2 14.8 11 34.5
2010-07-02 06:58:30 51°30.751 2°55.146 9.4 14.7 10 34.5
2010-07-02 06:58:35 51°30.771 2°55.153 9.9 14.8 11 33.7
2010-07-02 06:58:40 51°30.792 2°55.158 9.9 14.8 10 32.8
2010-07-02 06:58:45 51°30.812 2°55.165 9.5 14.8 11 30.7
2010-07-02 06:58:50 51°30.832 2°55.171 9.5 14.8 11 29.7
2010-07-02 06:58:55 51°30.852 2°55.177 9.8 14.8 11 28
2010-07-02 06:59:00 51°30.872 2°55.184 9.8 14.8 11 26.5
2010-07-02 06:59:05 51°30.892 2°55.19 9.8 14.8 11 21.8
2010-07-02 06:59:10 51°30.912 2°55.198 11 14.9 14 23.7
2010-07-02 06:59:15 51°30.933 2°55.205 11.7 14.9 12 21.1
2010-07-02 06:59:20 51°30.953 2°55.213 12.6 14.9 14 19.2
2010-07-02 06:59:25 51°30.973 2°55.22 13.2 14.9 13 20.2
2010-07-02 06:59:30 51°30.993 2°55.229 13.7 15 15 16.7
2010-07-02 06:59:35 51°31.013 2°55.237 14.2 14.9 13 19.4
2010-07-02 06:59:40 51°31.033 2°55.245 14.3 15 14 18.7
2010-07-02 06:59:45 51°31.053 2°55.253 14.9 15 15 18.6
2010-07-02 06:59:50 51°31.074 2°55.261 14.5 15 14 18.6
2010-07-02 06:59:55 51°31.094 2°55.269 14.8 15 14 18.4
2010-07-02 07:00:00 51°31.114 2°55.278 14.7 15 14 19.3
2010-07-02 07:00:05 51°31.134 2°55.286 14.9 15 14 16.9
2010-07-02 07:00:10 51°31.154 2°55.294 14.7 15 14 19.2
2010-07-02 07:00:15 51°31.175 2°55.301 14.5 15 13 18.7
2010-07-02 07:00:20 51°31.195 2°55.31 14.4 15 14 16.7
2010-07-02 07:00:25 51°31.215 2°55.317 14.7 15 14 19.4
2010-07-02 07:00:30 51°31.235 2°55.325 14.7 15 14 18.6
2010-07-02 07:00:35 51°31.255 2°55.333 14.6 14.9 14 17.5
2010-07-02 07:00:40 51°31.275 2°55.341 14.7 15 14 19.4
2010-07-02 07:00:45 51°31.296 2°55.348 14.7 15 14 17.2
2010-07-02 07:00:50 51°31.316 2°55.356 14.6 14.9 13 19
2010-07-02 07:00:55 51°31.336 2°55.364 14.9 14.9 14 19